sensor_id;sensor_type;location;lat;lon;timestamp;pressure;altitude;pressure_sealevel;temperature;humidity
67052;BME280;53957;47.222;18.670;2023-11-18T00:01:55;100147.59;;;3.44;100.00
67052;BME280;53957;47.222;18.670;2023-11-18T00:05:01;100143.38;;;3.43;100.00
67052;BME280;53957;47.222;18.670;2023-11-18T00:08:05;100142.25;;;3.39;100.00
67052;BME280;53957;47.222;18.670;2023-11-18T00:11:11;100151.69;;;3.35;100.00
67052;BME280;53957;47.222;18.670;2023-11-18T00:14:15;100158.22;;;3.32;100.00
67052;BME280;53957;47.222;18.670;2023-11-18T00:17:19;100172.06;;;3.40;100.00
67052;BME280;53957;47.222;18.670;2023-11-18T00:20:23;100167.59;;;3.40;100.00
67052;BME280;53957;47.222;18.670;2023-11-18T00:23:27;100161.06;;;3.31;100.00
67052;BME280;53957;47.222;18.670;2023-11-18T00:26:32;100164.03;;;3.34;100.00
67052;BME280;53957;47.222;18.670;2023-11-18T00:29:36;100171.19;;;3.22;100.00
67052;BME280;53957;47.222;18.670;2023-11-18T00:32:41;100186.66;;;3.18;100.00
67052;BME280;53957;47.222;18.670;2023-11-18T00:35:48;100193.44;;;3.14;100.00
67052;BME280;53957;47.222;18.670;2023-11-18T00:38:51;100211.91;;;3.14;100.00
67052;BME280;53957;47.222;18.670;2023-11-18T00:41:55;100197.34;;;3.12;100.00
67052;BME280;53957;47.222;18.670;2023-11-18T00:45:01;100210.28;;;3.13;100.00
67052;BME280;53957;47.222;18.670;2023-11-18T00:48:07;100220.03;;;3.13;100.00
67052;BME280;53957;47.222;18.670;2023-11-18T00:51:10;100218.88;;;3.09;100.00
67052;BME280;53957;47.222;18.670;2023-11-18T00:54:13;100211.91;;;3.14;100.00
67052;BME280;53957;47.222;18.670;2023-11-18T00:57:16;100214.53;;;3.14;100.00
67052;BME280;53957;47.222;18.670;2023-11-18T01:00:20;100215.72;;;3.06;100.00
67052;BME280;53957;47.222;18.670;2023-11-18T01:03:24;100234.16;;;3.06;100.00
67052;BME280;53957;47.222;18.670;2023-11-18T01:06:32;100240.31;;;3.12;100.00
67052;BME280;53957;47.222;18.670;2023-11-18T01:09:43;100243.53;;;3.14;100.00
67052;BME280;53957;47.222;18.670;2023-11-18T01:12:46;100242.41;;;3.10;100.00
67052;BME280;53957;47.222;18.670;2023-11-18T01:15:50;100230.16;;;3.04;100.00
67052;BME280;53957;47.222;18.670;2023-11-18T01:18:54;100226.59;;;3.10;100.00
67052;BME280;53957;47.222;18.670;2023-11-18T01:21:58;100228.41;;;3.10;100.00
67052;BME280;53957;47.222;18.670;2023-11-18T01:25:02;100234.25;;;3.12;100.00
67052;BME280;53957;47.222;18.670;2023-11-18T01:28:06;100238.13;;;3.21;100.00
67052;BME280;53957;47.222;18.670;2023-11-18T01:31:10;100247.28;;;3.18;100.00
67052;BME280;53957;47.222;18.670;2023-11-18T01:34:14;100257.37;;;3.21;100.00
67052;BME280;53957;47.222;18.670;2023-11-18T01:37:19;100242.50;;;3.15;100.00
67052;BME280;53957;47.222;18.670;2023-11-18T01:40:24;100244.00;;;3.11;100.00
67052;BME280;53957;47.222;18.670;2023-11-18T01:43:28;100238.06;;;3.04;100.00
67052;BME280;53957;47.222;18.670;2023-11-18T01:46:31;100238.16;;;2.97;100.00
67052;BME280;53957;47.222;18.670;2023-11-18T01:49:37;100242.16;;;3.00;100.00
67052;BME280;53957;47.222;18.670;2023-11-18T01:52:43;100246.41;;;3.01;100.00
67052;BME280;53957;47.222;18.670;2023-11-18T01:55:49;100250.00;;;2.83;100.00
67052;BME280;53957;47.222;18.670;2023-11-18T01:58:52;100242.53;;;2.92;100.00
67052;BME280;53957;47.222;18.670;2023-11-18T02:01:56;100246.31;;;2.84;100.00
67052;BME280;53957;47.222;18.670;2023-11-18T02:05:04;100231.66;;;2.88;100.00
67052;BME280;53957;47.222;18.670;2023-11-18T02:08:10;100237.59;;;2.83;100.00
67052;BME280;53957;47.222;18.670;2023-11-18T02:11:28;100234.28;;;2.88;100.00
67052;BME280;53957;47.222;18.670;2023-11-18T02:14:39;100237.28;;;2.92;100.00
67052;BME280;53957;47.222;18.670;2023-11-18T02:17:43;100232.00;;;2.92;100.00
67052;BME280;53957;47.222;18.670;2023-11-18T02:20:48;100221.81;;;2.95;100.00
67052;BME280;53957;47.222;18.670;2023-11-18T02:23:53;100233.37;;;2.94;100.00
67052;BME280;53957;47.222;18.670;2023-11-18T02:26:57;100241.72;;;3.03;100.00
67052;BME280;53957;47.222;18.670;2023-11-18T02:30:01;100245.28;;;2.97;100.00
67052;BME280;53957;47.222;18.670;2023-11-18T02:33:13;100252.59;;;2.95;100.00
67052;BME280;53957;47.222;18.670;2023-11-18T02:36:36;100262.47;;;2.99;100.00
67052;BME280;53957;47.222;18.670;2023-11-18T02:39:43;100262.00;;;2.90;100.00
67052;BME280;53957;47.222;18.670;2023-11-18T02:42:48;100258.91;;;2.94;100.00
67052;BME280;53957;47.222;18.670;2023-11-18T02:45:56;100267.37;;;2.96;100.00
67052;BME280;53957;47.222;18.670;2023-11-18T02:49:00;100261.19;;;3.02;100.00
67052;BME280;53957;47.222;18.670;2023-11-18T02:52:04;100262.12;;;2.96;100.00
67052;BME280;53957;47.222;18.670;2023-11-18T02:55:08;100267.72;;;2.99;100.00
67052;BME280;53957;47.222;18.670;2023-11-18T02:58:12;100256.03;;;3.07;100.00
67052;BME280;53957;47.222;18.670;2023-11-18T03:01:16;100251.22;;;3.04;100.00
67052;BME280;53957;47.222;18.670;2023-11-18T03:04:20;100257.72;;;3.13;100.00
67052;BME280;53957;47.222;18.670;2023-11-18T03:07:23;100261.41;;;3.12;100.00
67052;BME280;53957;47.222;18.670;2023-11-18T03:10:28;100260.13;;;3.15;100.00
67052;BME280;53957;47.222;18.670;2023-11-18T03:13:33;100263.78;;;3.26;100.00
67052;BME280;53957;47.222;18.670;2023-11-18T03:16:38;100263.22;;;3.24;100.00
67052;BME280;53957;47.222;18.670;2023-11-18T03:19:42;100262.31;;;3.30;100.00
67052;BME280;53957;47.222;18.670;2023-11-18T03:22:47;100267.69;;;3.35;100.00
67052;BME280;53957;47.222;18.670;2023-11-18T03:25:50;100275.50;;;3.30;100.00
67052;BME280;53957;47.222;18.670;2023-11-18T03:28:55;100281.66;;;3.35;100.00
67052;BME280;53957;47.222;18.670;2023-11-18T03:31:58;100279.16;;;3.29;100.00
67052;BME280;53957;47.222;18.670;2023-11-18T03:35:03;100283.41;;;3.30;100.00
67052;BME280;53957;47.222;18.670;2023-11-18T03:38:10;100289.13;;;3.27;100.00
67052;BME280;53957;47.222;18.670;2023-11-18T03:41:15;100289.13;;;3.27;100.00
67052;BME280;53957;47.222;18.670;2023-11-18T03:44:18;100302.88;;;3.29;100.00
67052;BME280;53957;47.222;18.670;2023-11-18T03:47:21;100300.34;;;3.22;100.00
67052;BME280;53957;47.222;18.670;2023-11-18T03:50:26;100302.97;;;3.22;100.00
67052;BME280;53957;47.222;18.670;2023-11-18T03:53:29;100298.88;;;3.26;100.00
67052;BME280;53957;47.222;18.670;2023-11-18T03:56:32;100300.78;;;3.31;100.00
67052;BME280;53957;47.222;18.670;2023-11-18T03:59:39;100311.56;;;3.29;100.00
67052;BME280;53957;47.222;18.670;2023-11-18T04:02:44;100304.47;;;3.30;100.00
67052;BME280;53957;47.222;18.670;2023-11-18T04:05:48;100318.47;;;3.30;100.00
67052;BME280;53957;47.222;18.670;2023-11-18T04:08:52;100307.31;;;3.28;100.00
67052;BME280;53957;47.222;18.670;2023-11-18T04:11:55;100318.69;;;3.29;100.00
67052;BME280;53957;47.222;18.670;2023-11-18T04:14:58;100319.63;;;3.22;100.00
67052;BME280;53957;47.222;18.670;2023-11-18T04:18:02;100332.75;;;3.34;100.00
67052;BME280;53957;47.222;18.670;2023-11-18T04:21:05;100331.06;;;3.28;100.00
67052;BME280;53957;47.222;18.670;2023-11-18T04:24:11;100337.50;;;3.20;100.00
67052;BME280;53957;47.222;18.670;2023-11-18T04:27:14;100333.59;;;3.23;100.00
67052;BME280;53957;47.222;18.670;2023-11-18T04:30:18;100340.12;;;3.20;100.00
67052;BME280;53957;47.222;18.670;2023-11-18T04:33:23;100343.69;;;3.26;100.00
67052;BME280;53957;47.222;18.670;2023-11-18T04:36:29;100337.94;;;3.29;100.00
67052;BME280;53957;47.222;18.670;2023-11-18T04:39:34;100345.97;;;3.22;100.00
67052;BME280;53957;47.222;18.670;2023-11-18T04:42:40;100339.09;;;3.21;100.00
67052;BME280;53957;47.222;18.670;2023-11-18T04:45:43;100345.28;;;3.15;100.00
67052;BME280;53957;47.222;18.670;2023-11-18T04:48:47;100352.16;;;3.16;100.00
67052;BME280;53957;47.222;18.670;2023-11-18T04:51:52;100362.47;;;3.06;100.00
67052;BME280;53957;47.222;18.670;2023-11-18T04:54:56;100373.47;;;3.03;100.00
67052;BME280;53957;47.222;18.670;2023-11-18T04:58:00;100366.25;;;2.98;100.00
67052;BME280;53957;47.222;18.670;2023-11-18T05:01:03;100369.13;;;2.97;100.00
67052;BME280;53957;47.222;18.670;2023-11-18T05:04:07;100368.41;;;2.89;100.00
67052;BME280;53957;47.222;18.670;2023-11-18T05:07:11;100374.62;;;2.95;100.00
67052;BME280;53957;47.222;18.670;2023-11-18T05:10:19;100373.22;;;2.93;100.00
67052;BME280;53957;47.222;18.670;2023-11-18T05:13:28;100375.06;;;2.92;100.00
67052;BME280;53957;47.222;18.670;2023-11-18T05:16:32;100378.41;;;2.99;100.00
67052;BME280;53957;47.222;18.670;2023-11-18T05:19:39;100382.63;;;3.00;100.00
67052;BME280;53957;47.222;18.670;2023-11-18T05:22:43;100380.56;;;3.02;100.00
67052;BME280;53957;47.222;18.670;2023-11-18T05:25:48;100371.50;;;2.98;100.00
67052;BME280;53957;47.222;18.670;2023-11-18T05:28:52;100375.63;;;3.06;100.00
67052;BME280;53957;47.222;18.670;2023-11-18T05:31:58;100373.47;;;3.03;100.00
67052;BME280;53957;47.222;18.670;2023-11-18T05:35:03;100373.00;;;3.06;100.00
67052;BME280;53957;47.222;18.670;2023-11-18T05:38:09;100375.53;;;3.01;100.00
67052;BME280;53957;47.222;18.670;2023-11-18T05:41:14;100384.00;;;3.03;100.00
67052;BME280;53957;47.222;18.670;2023-11-18T05:44:26;100390.53;;;3.00;100.00
67052;BME280;53957;47.222;18.670;2023-11-18T05:47:33;100394.78;;;3.01;100.00
67052;BME280;53957;47.222;18.670;2023-11-18T05:50:41;100390.53;;;3.00;100.00
67052;BME280;53957;47.222;18.670;2023-11-18T05:53:46;100396.37;;;3.02;100.00
67052;BME280;53957;47.222;18.670;2023-11-18T05:56:50;100412.41;;;3.01;100.00
67052;BME280;53957;47.222;18.670;2023-11-18T05:59:53;100398.69;;;2.99;100.00
67052;BME280;53957;47.222;18.670;2023-11-18T06:03:22;100393.75;;;3.02;100.00
67052;BME280;53957;47.222;18.670;2023-11-18T06:06:50;100397.28;;;2.96;100.00
67052;BME280;53957;47.222;18.670;2023-11-18T06:09:54;100402.34;;;2.98;100.00
67052;BME280;53957;47.222;18.670;2023-11-18T06:13:00;100403.03;;;3.05;100.00
67052;BME280;53957;47.222;18.670;2023-11-18T06:16:13;100400.41;;;3.05;100.00
67052;BME280;53957;47.222;18.670;2023-11-18T06:19:19;100408.09;;;3.06;100.00
67052;BME280;53957;47.222;18.670;2023-11-18T06:22:26;100417.94;;;3.11;100.00
67052;BME280;53957;47.222;18.670;2023-11-18T06:25:42;100425.28;;;3.09;100.00
67052;BME280;53957;47.222;18.670;2023-11-18T06:28:50;100443.47;;;3.11;100.00
67052;BME280;53957;47.222;18.670;2023-11-18T06:31:58;100432.03;;;3.05;100.00
67052;BME280;53957;47.222;18.670;2023-11-18T06:35:02;100437.88;;;3.07;100.00
67052;BME280;53957;47.222;18.670;2023-11-18T06:38:10;100447.66;;;3.42;100.00
67052;BME280;53957;47.222;18.670;2023-11-18T06:41:18;100437.53;;;3.75;100.00
67052;BME280;53957;47.222;18.670;2023-11-18T06:44:23;100448.19;;;3.92;100.00
67052;BME280;53957;47.222;18.670;2023-11-18T06:47:28;100441.66;;;3.94;100.00
67052;BME280;53957;47.222;18.670;2023-11-18T06:50:37;100443.44;;;4.06;100.00
67052;BME280;53957;47.222;18.670;2023-11-18T06:53:43;100450.69;;;4.10;100.00
67052;BME280;53957;47.222;18.670;2023-11-18T08:10:26;100503.97;;;6.35;100.00
67052;BME280;53957;47.222;18.670;2023-11-18T08:13:49;100529.47;;;6.41;100.00
67052;BME280;53957;47.222;18.670;2023-11-18T08:16:53;100524.19;;;6.41;100.00
67052;BME280;53957;47.222;18.670;2023-11-18T08:19:59;100527.03;;;7.12;100.00
67052;BME280;53957;47.222;18.670;2023-11-18T08:23:03;100527.88;;;6.90;100.00
67052;BME280;53957;47.222;18.670;2023-11-18T08:26:11;100528.13;;;6.88;100.00
67052;BME280;53957;47.222;18.670;2023-11-18T08:29:14;100514.75;;;7.00;98.28
67052;BME280;53957;47.222;18.670;2023-11-18T08:32:19;100520.00;;;6.95;100.00
67052;BME280;53957;47.222;18.670;2023-11-18T08:35:22;100515.19;;;6.92;99.50
67052;BME280;53957;47.222;18.670;2023-11-18T08:38:25;100536.34;;;7.14;99.30
67052;BME280;53957;47.222;18.670;2023-11-18T08:41:30;100536.44;;;6.97;97.16
67052;BME280;53957;47.222;18.670;2023-11-18T08:44:33;100530.50;;;7.45;96.57
67052;BME280;53957;47.222;18.670;2023-11-18T08:47:37;100527.94;;;7.60;97.15
67052;BME280;53957;47.222;18.670;2023-11-18T08:50:41;100533.88;;;7.72;92.00
67052;BME280;53957;47.222;18.670;2023-11-18T08:54:09;100541.41;;;7.48;92.97
67052;BME280;53957;47.222;18.670;2023-11-18T08:57:50;100547.06;;;8.00;91.44
67052;BME280;53957;47.222;18.670;2023-11-18T09:01:04;100549.28;;;7.38;93.36
67052;BME280;53957;47.222;18.670;2023-11-18T09:04:23;100532.53;;;6.55;100.00
67052;BME280;53957;47.222;18.670;2023-11-18T09:07:30;100537.09;;;6.82;100.00
67052;BME280;53957;47.222;18.670;2023-11-18T09:10:36;100526.75;;;6.81;100.00
67052;BME280;53957;47.222;18.670;2023-11-18T09:13:47;100519.81;;;6.30;100.00
67052;BME280;53957;47.222;18.670;2023-11-18T09:17:00;100519.13;;;7.17;99.19
67052;BME280;53957;47.222;18.670;2023-11-18T09:20:07;100520.16;;;7.86;93.14
67052;BME280;53957;47.222;18.670;2023-11-18T09:23:18;100540.50;;;8.13;88.93
67052;BME280;53957;47.222;18.670;2023-11-18T09:26:26;100541.09;;;8.30;88.59
67052;BME280;53957;47.222;18.670;2023-11-18T09:29:41;100519.22;;;7.65;90.09
67052;BME280;53957;47.222;18.670;2023-11-18T09:48:04;100511.56;;;8.21;84.47
67052;BME280;53957;47.222;18.670;2023-11-18T09:55:34;100507.41;;;8.41;85.33
67052;BME280;53957;47.222;18.670;2023-11-18T11:12:16;100564.53;;;7.90;89.11
67052;BME280;53957;47.222;18.670;2023-11-18T11:15:44;100565.38;;;7.58;92.46
67052;BME280;53957;47.222;18.670;2023-11-18T11:19:05;100573.69;;;7.35;91.88
67052;BME280;53957;47.222;18.670;2023-11-18T12:24:18;100621.25;;;6.92;94.88
67052;BME280;53957;47.222;18.670;2023-11-18T12:27:45;100634.41;;;6.82;94.75
67052;BME280;53957;47.222;18.670;2023-11-18T12:30:58;100615.47;;;6.73;98.89
67052;BME280;53957;47.222;18.670;2023-11-18T12:34:17;100628.22;;;6.54;97.55
67052;BME280;53957;47.222;18.670;2023-11-18T12:49:01;100610.59;;;7.74;81.32
67052;BME280;53957;47.222;18.670;2023-11-18T12:52:08;100619.69;;;7.78;81.32
67052;BME280;53957;47.222;18.670;2023-11-18T12:55:13;100625.41;;;8.40;80.01
67052;BME280;53957;47.222;18.670;2023-11-18T12:58:21;100625.22;;;8.09;77.93
67052;BME280;53957;47.222;18.670;2023-11-18T13:01:26;100642.16;;;8.41;80.57
67052;BME280;53957;47.222;18.670;2023-11-18T13:04:30;100630.41;;;8.31;77.52
67052;BME280;53957;47.222;18.670;2023-11-18T13:07:34;100639.88;;;8.17;77.98
67052;BME280;53957;47.222;18.670;2023-11-18T13:10:39;100641.34;;;7.97;81.38
67052;BME280;53957;47.222;18.670;2023-11-18T13:13:43;100623.47;;;8.25;80.80
67052;BME280;53957;47.222;18.670;2023-11-18T13:16:46;100627.81;;;8.42;80.27
67052;BME280;53957;47.222;18.670;2023-11-18T13:19:57;100629.56;;;8.63;76.54
67052;BME280;53957;47.222;18.670;2023-11-18T13:23:25;100635.62;;;8.53;75.06
67052;BME280;53957;47.222;18.670;2023-11-18T13:26:29;100637.63;;;7.98;77.17
67052;BME280;53957;47.222;18.670;2023-11-18T13:29:37;100650.03;;;7.87;77.01
67052;BME280;53957;47.222;18.670;2023-11-18T13:32:43;100651.59;;;7.51;78.62
67052;BME280;53957;47.222;18.670;2023-11-18T13:35:48;100655.38;;;7.33;79.86
67052;BME280;53957;47.222;18.670;2023-11-18T13:38:53;100654.88;;;7.36;81.98
67052;BME280;53957;47.222;18.670;2023-11-18T13:42:21;100660.44;;;7.34;81.77
67052;BME280;53957;47.222;18.670;2023-11-18T13:45:27;100663.91;;;7.35;82.70
67052;BME280;53957;47.222;18.670;2023-11-18T13:48:40;100668.91;;;7.31;84.14
67052;BME280;53957;47.222;18.670;2023-11-18T13:51:44;100669.28;;;7.18;85.11
67052;BME280;53957;47.222;18.670;2023-11-18T13:54:48;100679.16;;;7.00;90.27
67052;BME280;53957;47.222;18.670;2023-11-18T13:57:53;100678.59;;;6.76;92.60
67052;BME280;53957;47.222;18.670;2023-11-18T14:00:59;100673.00;;;6.55;90.96
67052;BME280;53957;47.222;18.670;2023-11-18T14:04:05;100682.91;;;6.43;93.03
67052;BME280;53957;47.222;18.670;2023-11-18T14:07:08;100683.66;;;6.38;94.39
67052;BME280;53957;47.222;18.670;2023-11-18T14:10:14;100686.59;;;6.42;94.01
67052;BME280;53957;47.222;18.670;2023-11-18T14:13:26;100696.81;;;6.33;94.49
67052;BME280;53957;47.222;18.670;2023-11-18T14:16:40;100695.88;;;6.22;93.18
67052;BME280;53957;47.222;18.670;2023-11-18T14:19:49;100688.31;;;6.31;93.66
67052;BME280;53957;47.222;18.670;2023-11-18T14:22:59;100688.97;;;6.21;94.12
67052;BME280;53957;47.222;18.670;2023-11-18T14:26:03;100693.94;;;6.18;96.43
67052;BME280;53957;47.222;18.670;2023-11-18T14:29:12;100697.38;;;6.01;99.41
67052;BME280;53957;47.222;18.670;2023-11-18T14:32:20;100675.03;;;5.97;97.67
67052;BME280;53957;47.222;18.670;2023-11-18T14:35:50;100685.63;;;5.97;100.00
67052;BME280;53957;47.222;18.670;2023-11-18T15:06:50;100684.81;;;5.22;100.00
67052;BME280;53957;47.222;18.670;2023-11-18T15:10:11;100690.03;;;5.16;100.00
67052;BME280;53957;47.222;18.670;2023-11-18T15:13:19;100694.19;;;5.12;100.00
67052;BME280;53957;47.222;18.670;2023-11-18T15:16:26;100686.94;;;5.08;100.00
67052;BME280;53957;47.222;18.670;2023-11-18T15:19:29;100690.63;;;5.07;100.00
67052;BME280;53957;47.222;18.670;2023-11-18T15:22:40;100704.34;;;4.92;100.00
67052;BME280;53957;47.222;18.670;2023-11-18T15:25:54;100702.38;;;4.75;100.00
67052;BME280;53957;47.222;18.670;2023-11-18T15:29:23;100705.06;;;4.63;100.00
67052;BME280;53957;47.222;18.670;2023-11-18T15:33:00;100712.84;;;4.70;100.00
67052;BME280;53957;47.222;18.670;2023-11-18T15:36:05;100719.88;;;4.53;100.00
67052;BME280;53957;47.222;18.670;2023-11-18T15:39:11;100725.50;;;4.56;100.00
67052;BME280;53957;47.222;18.670;2023-11-18T15:46:03;100741.78;;;4.29;100.00
67052;BME280;53957;47.222;18.670;2023-11-18T15:49:09;100743.81;;;4.15;100.00
67052;BME280;53957;47.222;18.670;2023-11-18T17:44:34;100815.22;;;3.60;100.00
67052;BME280;53957;47.222;18.670;2023-11-18T17:48:35;100813.00;;;3.57;100.00
67052;BME280;53957;47.222;18.670;2023-11-18T17:52:19;100786.84;;;3.55;100.00
67052;BME280;53957;47.222;18.670;2023-11-18T17:55:46;100781.81;;;3.53;100.00
67052;BME280;53957;47.222;18.670;2023-11-18T18:03:43;100787.22;;;3.59;100.00
67052;BME280;53957;47.222;18.670;2023-11-18T18:07:46;100794.53;;;3.57;100.00
67052;BME280;53957;47.222;18.670;2023-11-18T18:38:36;100831.44;;;3.19;100.00
67052;BME280;53957;47.222;18.670;2023-11-18T18:42:17;100831.03;;;3.22;100.00
67052;BME280;53957;47.222;18.670;2023-11-18T20:13:26;100826.22;;;2.69;100.00
67052;BME280;53957;47.222;18.670;2023-11-18T21:25:02;100880.28;;;2.01;100.00
67052;BME280;53957;47.222;18.670;2023-11-18T21:29:00;100878.22;;;2.09;100.00
67052;BME280;53957;47.222;18.670;2023-11-18T21:32:04;100856.38;;;2.02;100.00
67052;BME280;53957;47.222;18.670;2023-11-18T21:35:12;100853.75;;;2.02;100.00
67052;BME280;53957;47.222;18.670;2023-11-18T21:38:17;100846.53;;;1.91;100.00
67052;BME280;53957;47.222;18.670;2023-11-18T21:41:24;100852.59;;;1.91;100.00
67052;BME280;53957;47.222;18.670;2023-11-18T21:44:28;100844.91;;;1.90;100.00
67052;BME280;53957;47.222;18.670;2023-11-18T21:47:36;100839.06;;;1.88;100.00
67052;BME280;53957;47.222;18.670;2023-11-18T21:51:04;100836.06;;;1.77;100.00
67052;BME280;53957;47.222;18.670;2023-11-18T21:54:20;100834.66;;;1.75;100.00
67052;BME280;53957;47.222;18.670;2023-11-18T21:57:26;100828.78;;;1.80;100.00
67052;BME280;53957;47.222;18.670;2023-11-18T22:00:34;100822.69;;;1.86;100.00
67052;BME280;53957;47.222;18.670;2023-11-18T22:03:49;100809.78;;;1.71;100.00
67052;BME280;53957;47.222;18.670;2023-11-18T22:06:52;100806.94;;;1.72;100.00
67052;BME280;53957;47.222;18.670;2023-11-18T22:09:57;100803.53;;;1.72;100.00
67052;BME280;53957;47.222;18.670;2023-11-18T22:13:02;100799.91;;;1.66;100.00
67052;BME280;53957;47.222;18.670;2023-11-18T22:16:10;100802.69;;;1.78;100.00
67052;BME280;53957;47.222;18.670;2023-11-18T22:19:13;100797.88;;;1.68;100.00
67052;BME280;53957;47.222;18.670;2023-11-18T22:22:19;100803.13;;;1.68;100.00
67052;BME280;53957;47.222;18.670;2023-11-18T22:25:24;100794.62;;;1.66;100.00
67052;BME280;53957;47.222;18.670;2023-11-18T22:28:30;100787.56;;;1.67;100.00
67052;BME280;53957;47.222;18.670;2023-11-18T22:31:35;100775.84;;;1.63;100.00
67052;BME280;53957;47.222;18.670;2023-11-18T22:34:40;100781.69;;;1.65;100.00
67052;BME280;53957;47.222;18.670;2023-11-18T22:37:48;100788.81;;;1.57;100.00
67052;BME280;53957;47.222;18.670;2023-11-18T22:40:54;100793.84;;;1.59;100.00
67052;BME280;53957;47.222;18.670;2023-11-18T22:44:16;100777.09;;;1.47;100.00
67052;BME280;53957;47.222;18.670;2023-11-18T22:48:23;100796.13;;;1.49;100.00
67052;BME280;53957;47.222;18.670;2023-11-18T22:52:42;100805.22;;;1.46;100.00
67052;BME280;53957;47.222;18.670;2023-11-18T22:56:49;100789.72;;;1.24;100.00
67052;BME280;53957;47.222;18.670;2023-11-18T22:59:57;100802.03;;;1.31;100.00
67052;BME280;53957;47.222;18.670;2023-11-18T23:03:41;100807.31;;;1.24;100.00
67052;BME280;53957;47.222;18.670;2023-11-18T23:06:46;100806.31;;;1.18;100.00
67052;BME280;53957;47.222;18.670;2023-11-18T23:09:58;100820.06;;;1.20;100.00
67052;BME280;53957;47.222;18.670;2023-11-18T23:13:06;100799.06;;;1.07;100.00
